フンシャル の空港の天気 - METARとTAF

マデイラ空港 ( LPMA / FNC ) - ポルトガル フンシャル (マデイラ諸島)
飛行場実況気象(Metar)
観測時間08/13 22:30 WEST (08/13 21:30 UTC)
風向・風速北北東 3m/s
視程10km以上
天気現象
全天の4割程度の雲 雲底高度 430m
気温23℃
湿度73%
気圧1018hPa
METARLPMA 132130Z 03006KT 360V070 9999 SCT014 23/18 Q1018
過去の天気等 Google飛行場航空写真 Wunderground天気予報

過去48時間のMETAR

飛行場予報(TAF)
発表時間: 8/13 18:00 WEST (8/13 17:00 UTC)
予報対象時間: 13日19時 WEST ~ 14日19時 WEST
風向・風速南 4m/s
視程10km以上
全天の4割程度の雲 雲底高度 460m
13日19時 WEST ~ 13日22時 WEST に徐々に
風向・風速不定 3m/s
14日11時 WEST ~ 14日13時 WEST に徐々に
風向・風速南南西 6m/s
14日17時 WEST ~ 14日19時 WEST に徐々に
風向・風速北 5m/s
TAF LPMA 131700Z 1318/1418 19007KT 9999 SCT015
BECMG 1318/1321 VRB05KT
BECMG 1410/1412 20012KT
BECMG 1416/1418 01010KT